Audubon, Minnesota
Current Conditions -  °F | °C
As of 3:35 AM on Saturday 20 Dec 2014 (Local Time) from KDTL Reporting Station
Haze Haze  
Wind Chill: 21°   Ceiling: 200
Heat Index: 30°   Visibility: 2mi
Dew Point: 30°   Wind: 10mph
Humidity: 100%   Direction: 200°SSW
Pressure: 30.03"   Gusts: NA
Location:  46.86°N, 95.98°W
Report Text: KDTL 200935Z AUTO 20009KT 2SM BR OVC002 M01/M01 A3003 RMK AO2
Loading
Personal Weather Stations






























Interactive Weather Map New forecast layout! Learn more

10-Day Weather Forecast

Advertisements
Track Severe Weather on mobile